Time;durP1;ratioP1;P1;durP2;ratioP2;P2;SDS_P1;SDS_P2;PMS_P1;PMS_P2;Temp;Humidity;BMP_temperature;BMP_pressure;BME280_temperature;BME280_humidity;BME280_pressure;Samples;Min_cycle;Max_cycle;Signal;HPM_P1;HPM_P2
2022/09/06 00:00:54;;;;;;;4.78;1.70;;;;;;;14.24;70.60;101114.31;5078535;28;20020;-74
2022/09/06 00:03:20;;;;;;;5.38;1.75;;;;;;;14.19;70.60;101117.88;5078242;28;20450;-72
2022/09/06 00:05:45;;;;;;;3.00;1.63;;;;;;;14.21;70.68;101109.56;5095546;28;20028;-71
2022/09/06 00:08:10;;;;;;;11.38;2.15;;;;;;;14.14;70.85;101109.16;5096516;28;20020;-72
2022/09/06 00:10:36;;;;;;;5.10;1.95;;;;;;;14.19;71.32;101111.34;5095164;28;20472;-71
2022/09/06 00:13:06;;;;;;;2.67;1.60;;;;;;;14.18;71.42;101104.78;5094977;28;20055;-72
2022/09/06 00:15:32;;;;;;;3.72;2.33;;;;;;;14.18;71.51;101104.03;5093693;28;20054;-72
2022/09/06 00:17:59;;;;;;;5.00;1.73;;;;;;;14.13;71.59;101102.66;5095108;28;20024;-72
2022/09/06 00:20:26;;;;;;;4.72;1.48;;;;;;;14.08;72.13;101091.06;5093798;28;20351;-73
2022/09/06 00:22:55;;;;;;;7.55;2.00;;;;;;;14.01;72.28;101100.09;5077826;28;20107;-72
2022/09/06 00:25:21;;;;;;;4.15;2.28;;;;;;;13.93;72.66;101096.84;5095079;28;20016;-72
2022/09/06 00:27:46;;;;;;;2.50;1.52;;;;;;;13.84;72.74;101103.47;5094710;28;20020;-72
2022/09/06 00:30:12;;;;;;;3.03;1.70;;;;;;;13.85;73.06;101098.50;5096325;28;20028;-72
2022/09/06 00:32:38;;;;;;;5.22;1.70;;;;;;;13.76;73.68;101105.16;5096105;28;20024;-73
2022/09/06 00:35:05;;;;;;;2.80;1.58;;;;;;;13.66;74.33;101109.41;5095890;28;20024;-72
2022/09/06 00:37:30;;;;;;;4.30;1.90;;;;;;;13.59;74.72;101103.28;5094847;28;20016;-73
2022/09/06 00:39:55;;;;;;;4.15;1.65;;;;;;;13.57;75.05;101095.16;5094529;28;20053;-73
2022/09/06 00:42:21;;;;;;;5.22;1.80;;;;;;;13.57;75.34;101105.84;5094501;28;20027;-72
2022/09/06 00:44:47;;;;;;;4.47;1.95;;;;;;;13.58;75.43;101093.09;5075881;28;20042;-73
2022/09/06 00:47:12;;;;;;;4.63;1.52;;;;;;;13.58;75.25;101093.09;5092411;28;20103;-73
2022/09/06 00:49:41;;;;;;;2.72;1.50;;;;;;;13.64;75.47;101096.84;5092303;28;20445;-72
2022/09/06 00:52:10;;;;;;;3.90;1.58;;;;;;;13.73;75.00;101082.38;5092193;28;20381;-73
2022/09/06 00:54:36;;;;;;;3.15;1.55;;;;;;;13.70;74.64;101089.09;5075231;28;20492;-74
2022/09/06 00:57:01;;;;;;;2.05;1.50;;;;;;;13.79;74.47;101091.88;5092153;28;20023;-72
2022/09/06 00:59:29;;;;;;;2.70;1.60;;;;;;;13.81;74.07;101095.84;5093348;28;20020;-73
2022/09/06 01:01:54;;;;;;;3.38;1.63;;;;;;;13.80;73.44;101093.47;5093369;28;20028;-73
2022/09/06 01:04:19;;;;;;;3.83;1.98;;;;;;;13.79;73.28;101092.66;5075159;28;20126;-75
2022/09/06 01:06:48;;;;;;;2.72;1.58;;;;;;;13.73;73.11;101099.63;5093194;28;20020;-73
2022/09/06 01:09:17;;;;;;;3.03;1.52;;;;;;;13.70;73.34;101104.25;5091398;28;20031;-73
2022/09/06 01:11:54;;;;;;;3.78;1.83;;;;;;;13.61;73.60;101106.44;5091708;28;20098;-73
2022/09/06 01:14:40;;;;;;;6.95;1.70;;;;;;;13.53;73.93;101101.09;5094336;28;20093;-73
2022/09/06 01:17:27;;;;;;;3.72;1.95;;;;;;;13.46;74.17;101098.59;5095223;28;20092;-72
2022/09/06 01:20:29;;;;;;;2.95;1.65;;;;;;;13.36;74.63;101099.97;5076997;28;20050;-72
2022/09/06 01:22:58;;;;;;;3.35;1.88;;;;;;;13.28;75.38;101090.16;5093771;28;20465;-71
2022/09/06 01:25:51;;;;;;;2.15;1.60;;;;;;;13.22;76.02;101095.00;5095031;28;20107;-73
2022/09/06 01:28:44;;;;;;;5.88;2.22;;;;;;;13.15;76.27;101101.09;5095224;28;20097;-72
2022/09/06 01:31:22;;;;;;;6.45;1.70;;;;;;;13.08;77.03;101104.38;5093896;28;20476;-71
2022/09/06 01:34:11;;;;;;;3.78;1.90;;;;;;;13.01;77.47;101104.72;5095186;28;20047;-72
2022/09/06 01:36:42;;;;;;;2.13;1.60;;;;;;;12.93;78.44;101107.19;5093864;28;20032;-74
2022/09/06 01:39:16;;;;;;;4.60;1.83;;;;;;;12.87;78.38;101106.28;5095182;28;20024;-72
2022/09/06 01:41:42;;;;;;;4.68;2.10;;;;;;;12.83;79.06;101096.28;5095029;28;20020;-72
2022/09/06 01:44:07;;;;;;;3.67;1.73;;;;;;;12.83;79.06;101099.13;5094755;28;20023;-73
2022/09/06 01:46:39;;;;;;;3.00;1.20;;;;;;;12.75;79.36;101095.84;5093347;28;20028;-71
2022/09/06 01:49:26;;;;;;;2.40;1.60;;;;;;;12.73;79.38;101101.28;5076380;28;20024;-73
2022/09/06 01:52:08;;;;;;;5.63;1.90;;;;;;;12.69;80.01;101098.59;5093119;28;20052;-73
2022/09/06 01:55:00;;;;;;;2.60;1.67;;;;;;;12.65;80.35;101103.72;5094516;28;20062;-73
2022/09/06 01:57:37;;;;;;;;;;;;;;;12.65;80.33;101108.69;5053734;28;20058;-72
2022/09/06 02:00:08;;;;;;;4.82;1.67;;;;;;;12.63;80.37;101096.88;5093396;28;19912;-71
2022/09/06 02:02:59;;;;;;;2.85;1.55;;;;;;;12.62;80.17;101096.09;5093322;28;20429;-72
2022/09/06 02:05:31;;;;;;;4.30;1.70;;;;;;;12.58;80.48;101100.44;5092929;28;20389;-72
2022/09/06 02:08:05;;;;;;;2.75;1.90;;;;;;;12.50;81.08;101105.75;5075888;28;20043;-74
2022/09/06 02:10:35;;;;;;;3.25;1.83;;;;;;;12.47;81.15;101103.84;5093897;28;20103;-72
2022/09/06 02:13:03;;;;;;;5.60;1.92;;;;;;;12.40;81.70;101098.47;5094079;28;20031;-73
2022/09/06 02:15:32;;;;;;;1.90;1.50;;;;;;;12.41;81.70;101099.25;5092757;28;20048;-72
2022/09/06 02:18:06;;;;;;;4.28;1.58;;;;;;;12.36;81.74;101106.44;5075745;28;20488;-73
2022/09/06 02:20:34;;;;;;;4.55;2.17;;;;;;;12.31;82.49;101100.56;5092204;28;20032;-72
2022/09/06 02:23:02;;;;;;;4.85;1.88;;;;;;;12.24;83.32;101096.78;5075941;28;20020;-72
2022/09/06 02:25:34;;;;;;;3.75;1.65;;;;;;;12.22;83.51;101092.78;5075703;28;20426;-73
2022/09/06 02:27:59;;;;;;;3.53;1.60;;;;;;;12.18;84.16;101083.59;5092809;28;20085;-73
2022/09/06 02:30:25;;;;;;;3.92;1.67;;;;;;;12.12;85.11;101089.19;5092562;28;20043;-73
2022/09/06 02:32:57;;;;;;;3.88;1.92;;;;;;;12.09;85.23;101080.75;5093985;28;20098;-73
2022/09/06 02:35:23;;;;;;;5.22;1.42;;;;;;;12.08;85.49;101096.38;5075629;28;20061;-72
2022/09/06 02:37:48;;;;;;;4.97;1.90;;;;;;;12.03;85.75;101082.69;5093817;28;20024;-72
2022/09/06 02:40:14;;;;;;;11.18;1.85;;;;;;;11.98;85.79;101078.41;5092525;28;20065;-72
2022/09/06 02:42:40;;;;;;;5.85;1.48;;;;;;;11.96;86.18;101080.97;5093750;28;20020;-73
2022/09/06 02:45:06;;;;;;;3.40;1.55;;;;;;;11.87;86.45;101081.00;5092663;28;20481;-72
2022/09/06 02:47:32;;;;;;;3.00;1.88;;;;;;;11.89;86.51;101084.19;5092500;28;20032;-73
2022/09/06 02:49:57;;;;;;;3.33;2.03;;;;;;;11.84;87.33;101084.84;5093582;28;20476;-71
2022/09/06 02:52:22;;;;;;;5.47;1.52;;;;;;;11.86;87.47;101084.38;5093422;28;20103;-71
2022/09/06 02:54:48;;;;;;;3.75;1.50;;;;;;;11.84;87.57;101085.66;5093582;28;20032;-73
2022/09/06 02:57:13;;;;;;;4.05;1.65;;;;;;;11.85;87.72;101086.44;5093566;28;20039;-73
2022/09/06 02:59:39;;;;;;;3.75;2.17;;;;;;;11.87;87.81;101075.28;5075296;28;20028;-73
2022/09/06 03:02:04;;;;;;;2.45;1.77;;;;;;;11.88;87.72;101074.00;5092170;28;20381;-73
2022/09/06 03:04:30;;;;;;;2.70;1.70;;;;;;;11.89;88.22;101069.06;5093650;28;20070;-72
2022/09/06 03:06:56;;;;;;;4.28;2.13;;;;;;;11.94;87.71;101071.28;5093712;28;20028;-73
2022/09/06 03:09:21;;;;;;;1.67;1.35;;;;;;;11.97;88.27;101071.09;5093582;28;20176;-73
2022/09/06 03:11:46;;;;;;;4.03;2.10;;;;;;;11.99;88.56;101065.69;5092267;28;20027;-74
2022/09/06 03:14:12;;;;;;;2.03;1.58;;;;;;;12.01;88.45;101062.34;5093196;28;20048;-73
2022/09/06 03:16:37;;;;;;;4.85;1.67;;;;;;;12.06;88.33;101061.69;5075319;28;20020;-72
2022/09/06 03:19:03;;;;;;;5.68;2.03;;;;;;;12.07;87.97;101064.06;5092381;28;20024;-71
2022/09/06 03:21:28;;;;;;;6.07;2.28;;;;;;;12.06;88.53;101065.31;5093332;28;20483;-73
2022/09/06 03:23:53;;;;;;;4.13;1.67;;;;;;;12.08;88.50;101065.66;5093260;28;20384;-73
2022/09/06 03:26:19;;;;;;;4.00;1.92;;;;;;;12.06;88.75;101059.59;5093233;28;20052;-72
2022/09/06 03:28:44;;;;;;;3.45;1.90;;;;;;;12.09;89.02;101066.44;5075206;28;20029;-73
2022/09/06 03:31:10;;;;;;;2.55;1.20;;;;;;;12.10;88.93;101060.25;5094185;28;20032;-72
2022/09/06 03:33:35;;;;;;;3.60;2.15;;;;;;;12.14;88.43;101057.19;5096066;28;20032;-72
2022/09/06 03:36:02;;;;;;;3.60;1.70;;;;;;;12.13;88.25;101059.25;5097587;28;20082;-73
2022/09/06 03:38:28;;;;;;;6.70;1.92;;;;;;;12.12;88.51;101056.88;5097430;28;20024;-71
2022/09/06 03:40:54;;;;;;;5.40;2.35;;;;;;;12.05;88.68;101060.91;5096225;28;20114;-72
2022/09/06 03:43:21;;;;;;;6.93;2.00;;;;;;;11.98;88.97;101061.25;5097009;28;20098;-71
2022/09/06 03:45:49;;;;;;;4.20;1.73;;;;;;;11.94;89.92;101062.69;5097021;28;20055;-72
2022/09/06 03:48:15;;;;;;;4.90;1.95;;;;;;;11.91;90.25;101063.66;5095804;28;20178;-73
2022/09/06 03:50:45;;;;;;;5.03;1.75;;;;;;;11.81;90.93;101057.97;5095766;28;20077;-73
2022/09/06 03:53:10;;;;;;;3.03;2.05;;;;;;;11.77;91.25;101060.19;5078746;28;20059;-71
2022/09/06 03:55:36;;;;;;;2.58;1.80;;;;;;;11.78;91.38;101064.66;5095667;28;20227;-71
2022/09/06 03:58:01;;;;;;;3.35;1.80;;;;;;;11.82;90.97;101062.41;5095431;28;20047;-72
2022/09/06 04:00:26;;;;;;;3.85;1.92;;;;;;;11.80;90.80;101061.31;5097024;28;20429;-72
2022/09/06 04:02:52;;;;;;;6.80;1.77;;;;;;;11.84;90.15;101059.06;5079034;28;20063;-72
2022/09/06 04:05:17;;;;;;;9.68;3.10;;;;;;;11.93;89.60;101063.97;5095643;28;20064;-73
2022/09/06 04:07:42;;;;;;;5.18;1.88;;;;;;;11.98;88.85;101055.50;5095291;28;20024;-72
2022/09/06 04:10:08;;;;;;;4.03;1.85;;;;;;;11.98;88.92;101063.31;5096587;28;20449;-73
2022/09/06 04:12:34;;;;;;;3.70;1.88;;;;;;;12.04;88.60;101053.56;5096525;28;20020;-72
2022/09/06 04:14:59;;;;;;;2.30;1.83;;;;;;;12.05;88.53;101057.25;5095123;28;20052;-73
2022/09/06 04:17:24;;;;;;;3.08;1.80;;;;;;;12.04;89.51;101058.50;5095196;28;20032;-73
2022/09/06 04:19:50;;;;;;;3.20;1.70;;;;;;;12.11;89.80;101058.16;5095176;28;20464;-71
2022/09/06 04:22:15;;;;;;;4.20;2.10;;;;;;;12.10;89.25;101050.84;5096531;28;20054;-72
2022/09/06 04:24:40;;;;;;;5.75;1.80;;;;;;;12.18;88.43;101054.94;5095097;28;20384;-72
2022/09/06 04:27:06;;;;;;;5.25;2.08;;;;;;;12.25;87.92;101061.13;5077887;28;20039;-72
2022/09/06 04:29:32;;;;;;;7.72;2.15;;;;;;;12.25;88.12;101060.31;5095680;28;20022;-72
2022/09/06 04:31:57;;;;;;;4.88;1.80;;;;;;;12.30;87.76;101061.72;5094297;28;20068;-73
2022/09/06 04:34:23;;;;;;;2.97;1.70;;;;;;;12.31;87.99;101064.06;5093963;28;20028;-72
2022/09/06 04:36:48;;;;;;;2.90;1.80;;;;;;;12.30;88.03;101053.91;5092666;28;20031;-72
2022/09/06 04:39:14;;;;;;;3.88;1.58;;;;;;;12.32;87.74;101050.53;5093861;28;20028;-73
2022/09/06 04:41:39;;;;;;;5.70;1.52;;;;;;;12.40;87.71;101052.63;5075288;28;20389;-73
2022/09/06 04:44:05;;;;;;;4.20;1.63;;;;;;;12.37;87.85;101036.38;5093101;28;20024;-73
2022/09/06 04:46:31;;;;;;;3.83;1.50;;;;;;;12.32;88.25;101024.75;5094787;28;20034;-73
2022/09/06 04:48:57;;;;;;;3.08;1.75;;;;;;;12.33;88.65;101032.88;5096084;28;20039;-73
2022/09/06 04:51:31;;;;;;;3.22;1.77;;;;;;;12.32;88.93;101041.94;5094075;28;20481;-73
2022/09/06 04:53:57;;;;;;;4.20;1.70;;;;;;;12.35;89.25;101047.53;5094537;28;20054;-73
2022/09/06 04:56:37;;;;;;;4.18;2.13;;;;;;;12.40;89.08;101057.56;5094485;28;20477;-76
2022/09/06 04:59:04;;;;;;;4.75;2.10;;;;;;;12.49;88.97;101052.56;5078011;28;20035;-76
2022/09/06 05:01:30;;;;;;;4.28;2.22;;;;;;;12.51;88.12;101052.84;5094415;28;20468;-76
2022/09/06 05:03:56;;;;;;;3.50;1.52;;;;;;;12.61;88.00;101045.75;5072233;28;20036;-78
2022/09/06 05:06:30;;;;;;;4.10;1.90;;;;;;;12.59;88.48;101039.75;5061243;28;20349;-78
2022/09/06 05:08:56;;;;;;;6.07;1.90;;;;;;;12.70;87.97;101042.81;5077771;28;20027;-77
2022/09/06 05:11:21;;;;;;;4.97;2.03;;;;;;;12.84;87.55;101047.03;5076734;28;20036;-77
2022/09/06 05:13:49;;;;;;;2.47;1.83;;;;;;;12.68;86.78;101016.72;5060008;28;20048;-75
2022/09/06 05:16:15;;;;;;;8.20;1.92;;;;;;;12.95;85.92;101044.34;5077145;28;20074;-76
2022/09/06 05:18:43;;;;;;;4.82;1.85;;;;;;;13.04;85.31;101055.00;5061072;28;20423;-80
2022/09/06 05:21:10;;;;;;;2.92;1.85;;;;;;;13.08;84.68;101055.59;5095372;28;20035;-80
2022/09/06 05:23:36;;;;;;;7.80;2.25;;;;;;;13.16;84.37;101061.72;5094504;28;20557;-75
2022/09/06 05:26:02;;;;;;;3.05;1.75;;;;;;;13.30;83.46;101063.81;5092804;28;20036;-78
2022/09/06 05:28:28;;;;;;;2.80;1.90;;;;;;;13.29;83.55;101059.38;5076740;28;20130;-80
2022/09/06 05:31:23;;;;;;;5.88;2.47;;;;;;;13.51;83.13;101062.66;5094977;28;20380;-78
2022/09/06 05:33:48;;;;;;;4.13;2.38;;;;;;;13.55;82.64;101069.00;5068098;28;20036;-78
2022/09/06 05:36:13;;;;;;;5.32;2.38;;;;;;;13.62;81.67;101076.44;5075895;28;20153;-78
2022/09/06 05:38:39;;;;;;;4.63;1.65;;;;;;;13.65;80.92;101069.69;5075623;28;20467;-80
2022/09/06 05:41:04;;;;;;;4.03;1.80;;;;;;;13.67;80.58;101075.75;5057687;28;20016;-78
2022/09/06 05:43:30;;;;;;;3.17;1.83;;;;;;;13.61;80.69;101064.16;5074356;28;20023;-79
2022/09/06 05:45:55;;;;;;;6.18;2.13;;;;;;;13.54;80.68;101067.44;5092285;28;20089;-78
2022/09/06 05:48:20;;;;;;;7.50;1.92;;;;;;;13.63;80.99;101084.56;5074308;28;20016;-77
2022/09/06 05:50:46;;;;;;;4.57;1.85;;;;;;;13.66;81.29;101071.28;5092279;28;20369;-78
2022/09/06 05:53:11;;;;;;;4.03;1.90;;;;;;;13.72;81.25;101075.84;5074678;28;20052;-78
2022/09/06 05:55:37;;;;;;;9.93;2.50;;;;;;;13.77;81.27;101082.97;5094623;28;20032;-76
2022/09/06 05:58:02;;;;;;;10.05;2.80;;;;;;;13.84;80.63;101073.94;5059468;28;20110;-77
2022/09/06 06:00:28;;;;;;;5.78;2.47;;;;;;;13.91;80.00;101059.97;5076325;28;20074;-79
2022/09/06 06:02:53;;;;;;;2.55;1.58;;;;;;;13.99;78.97;101071.84;5094017;28;20016;-78
2022/09/06 06:05:19;;;;;;;5.50;2.00;;;;;;;14.25;77.17;101074.84;5076068;28;20031;-78
2022/09/06 06:07:44;;;;;;;7.97;1.77;;;;;;;14.35;77.38;101059.84;5076126;28;20024;-77
2022/09/06 06:10:09;;;;;;;4.60;2.00;;;;;;;14.80;75.41;101078.53;5076194;28;20024;-78
2022/09/06 06:12:35;;;;;;;3.10;1.98;;;;;;;15.04;73.12;101077.50;5076157;28;20028;-79
2022/09/06 06:15:00;;;;;;;10.02;2.17;;;;;;;15.18;71.77;101088.94;5072536;28;20040;-79
2022/09/06 06:17:26;;;;;;;4.10;1.83;;;;;;;15.53;70.54;101088.78;5072520;28;20474;-78
2022/09/06 06:19:52;;;;;;;8.93;2.35;;;;;;;15.93;68.88;101082.13;5056038;28;20074;-79
2022/09/06 06:22:17;;;;;;;10.02;2.33;;;;;;;16.24;66.76;101081.31;5073987;28;20020;-78
2022/09/06 06:24:43;;;;;;;6.60;2.40;;;;;;;16.42;64.65;101082.97;5072819;28;20031;-78
2022/09/06 06:27:08;;;;;;;9.25;3.10;;;;;;;16.27;64.57;101088.91;5073815;28;20029;-78
2022/09/06 06:29:33;;;;;;;6.97;2.22;;;;;;;16.18;65.71;101073.91;5072542;28;20025;-77
2022/09/06 06:31:59;;;;;;;3.83;1.85;;;;;;;16.22;65.56;101086.78;5055707;28;20044;-77
2022/09/06 06:34:24;;;;;;;4.43;1.80;;;;;;;16.14;65.46;101097.22;5073634;28;20461;-77
2022/09/06 06:36:49;;;;;;;4.22;1.75;;;;;;;15.91;66.05;101089.69;5073499;28;20087;-78
2022/09/06 06:39:15;;;;;;;3.92;1.45;;;;;;;15.65;67.13;101086.84;5072690;28;20158;-76
2022/09/06 06:41:40;;;;;;;5.35;2.03;;;;;;;15.61;67.94;101089.16;5072341;28;20012;-78
2022/09/06 06:44:06;;;;;;;7.22;2.03;;;;;;;15.37;69.39;101075.00;5072464;28;20059;-78
2022/09/06 06:46:34;;;;;;;5.57;2.42;;;;;;;15.26;70.62;101080.66;5055446;28;20052;-77
2022/09/06 06:48:59;;;;;;;2.05;1.60;;;;;;;15.26;71.27;101072.03;5055759;28;20461;-81
2022/09/06 06:51:30;;;;;;;6.15;1.80;;;;;;;15.36;71.74;101070.56;5071923;28;20027;-74
2022/09/06 06:53:58;;;;;;;4.97;1.80;;;;;;;15.39;71.75;101069.53;5073329;28;20024;-75
2022/09/06 06:56:26;;;;;;;4.55;1.80;;;;;;;15.44;71.71;101077.44;5073315;28;20028;-74
2022/09/06 06:58:54;;;;;;;7.30;2.15;;;;;;;15.41;72.05;101075.59;5073566;28;20078;-75
2022/09/06 07:01:20;;;;;;;4.82;2.03;;;;;;;15.42;72.30;101079.22;5073075;28;20039;-73
2022/09/06 07:03:46;;;;;;;2.88;1.92;;;;;;;15.58;72.89;101079.41;5072985;28;20119;-75
2022/09/06 07:06:12;;;;;;;17.52;2.95;;;;;;;15.64;72.04;101076.63;5071415;28;20067;-76
2022/09/06 07:08:38;;;;;;;4.03;1.90;;;;;;;15.65;72.44;101072.44;5072234;28;20081;-72
2022/09/06 07:11:08;;;;;;;5.32;1.95;;;;;;;15.62;72.78;101071.34;5073292;28;20071;-71
2022/09/06 07:13:34;;;;;;;6.57;2.42;;;;;;;15.72;74.50;101074.84;5076041;28;20048;-73
2022/09/06 07:16:07;;;;;;;2.70;1.80;;;;;;;15.81;75.36;101068.13;5075572;28;20028;-72
2022/09/06 07:18:33;;;;;;;7.68;2.35;;;;;;;15.80;75.77;101067.34;5093635;28;20027;-72
2022/09/06 07:20:58;;;;;;;4.18;2.50;;;;;;;15.82;76.53;101070.47;5093240;28;20024;-70
2022/09/06 07:23:24;;;;;;;4.57;2.35;;;;;;;15.83;77.21;101068.38;5058431;28;20081;-72
2022/09/06 07:25:49;;;;;;;7.20;2.20;;;;;;;15.92;77.47;101089.16;5086515;28;20039;-74
2022/09/06 07:28:15;;;;;;;7.18;2.80;;;;;;;16.02;78.11;101087.69;5093678;28;20058;-72
2022/09/06 07:30:40;;;;;;;5.05;2.60;;;;;;;16.00;76.62;101095.28;5095902;28;20028;-72
2022/09/06 07:33:06;;;;;;;27.38;3.55;;;;;;;16.08;76.94;101097.19;5095808;28;20024;-72
2022/09/06 07:35:32;;;;;;;6.78;2.70;;;;;;;16.18;77.12;101086.22;5095335;28;20028;-74
2022/09/06 07:37:59;;;;;;;5.38;2.40;;;;;;;16.18;76.69;101088.31;5092970;28;20534;-73
2022/09/06 07:40:26;;;;;;;9.48;2.35;;;;;;;16.32;77.86;101099.72;5095069;28;20077;-73
2022/09/06 07:42:55;;;;;;;10.75;2.33;;;;;;;16.36;77.46;101097.38;5092757;28;20035;-72
2022/09/06 07:45:20;;;;;;;3.17;2.00;;;;;;;16.42;75.07;101095.31;5093012;28;20065;-74
2022/09/06 07:47:52;;;;;;;9.32;3.78;;;;;;;16.38;74.71;101100.53;5093187;28;20105;-74
2022/09/06 07:50:18;;;;;;;7.20;3.33;;;;;;;16.38;74.30;101099.75;5091368;28;20115;-74
2022/09/06 07:52:43;;;;;;;6.18;2.42;;;;;;;16.38;74.44;101096.84;5074672;28;20174;-72
2022/09/06 07:55:09;;;;;;;3.28;2.10;;;;;;;16.31;74.45;101103.88;5092867;28;20032;-73
2022/09/06 07:57:34;;;;;;;7.05;2.30;;;;;;;16.17;74.38;101107.72;5091434;28;20075;-73
2022/09/06 08:00:00;;;;;;;5.28;2.33;;;;;;;16.05;74.90;101100.31;5092786;28;20028;-74
2022/09/06 08:02:25;;;;;;;5.35;2.65;;;;;;;16.04;75.92;101098.72;5091567;28;20020;-73
2022/09/06 08:04:50;;;;;;;8.68;2.47;;;;;;;16.13;75.95;101104.28;5093000;28;20024;-74
2022/09/06 08:07:16;;;;;;;4.45;2.17;;;;;;;16.09;76.75;101095.09;5092706;28;20437;-76
2022/09/06 08:09:41;;;;;;;7.13;2.78;;;;;;;16.19;77.12;101089.91;5092708;28;20039;-74
2022/09/06 08:12:07;;;;;;;3.95;1.95;;;;;;;16.43;77.03;101093.22;5092409;28;20039;-74
2022/09/06 08:14:33;;;;;;;3.80;2.10;;;;;;;16.49;75.44;101086.19;5092461;28;20040;-74
2022/09/06 08:16:58;;;;;;;6.15;2.20;;;;;;;16.76;74.43;101083.97;5092890;28;20028;-77
2022/09/06 08:19:24;;;;;;;7.97;2.35;;;;;;;17.16;73.15;101077.84;5096008;28;20046;-74
2022/09/06 08:21:53;;;;;;;19.52;2.85;;;;;;;17.30;69.66;101076.03;5096579;28;20027;-74
2022/09/06 08:24:18;;;;;;;10.57;3.22;;;;;;;17.57;68.90;101066.69;5096140;28;20028;-73
2022/09/06 08:26:44;;;;;;;5.35;2.47;;;;;;;17.86;67.50;101062.50;5094671;28;20517;-74
2022/09/06 08:29:10;;;;;;;8.25;2.28;;;;;;;17.95;63.90;101056.44;5096076;28;20073;-74
2022/09/06 08:31:38;;;;;;;6.72;2.55;;;;;;;18.40;61.48;101056.41;5095903;28;20028;-73
2022/09/06 08:34:03;;;;;;;9.27;2.97;;;;;;;18.89;58.43;101069.16;5095923;28;20457;-73
2022/09/06 08:36:29;;;;;;;7.18;2.40;;;;;;;20.06;54.60;101069.22;5095713;28;20153;-73
2022/09/06 08:38:59;;;;;;;10.23;3.13;;;;;;;20.81;50.41;101090.66;5094696;28;20078;-74
2022/09/06 08:41:29;;;;;;;7.55;2.83;;;;;;;20.97;47.44;101094.69;5094566;28;20032;-73
2022/09/06 08:43:56;;;;;;;11.75;2.58;;;;;;;21.11;46.97;101099.25;5096023;28;20031;-73
2022/09/06 08:46:28;;;;;;;6.80;2.70;;;;;;;20.88;46.53;101103.00;5077668;28;20098;-74
2022/09/06 08:48:54;;;;;;;6.63;3.03;;;;;;;21.12;46.54;101097.94;5077409;28;20356;-74
2022/09/06 08:51:28;;;;;;;9.93;2.67;;;;;;;21.18;45.92;101104.47;5094415;28;20171;-74
2022/09/06 08:53:59;;;;;;;7.53;2.70;;;;;;;21.54;45.13;101095.50;5095540;28;20099;-74
2022/09/06 08:56:33;;;;;;;10.50;2.47;;;;;;;21.22;45.86;101098.34;5077388;28;20415;-75
2022/09/06 08:59:06;;;;;;;4.28;2.67;;;;;;;21.39;45.49;101103.91;5094581;28;20292;-73
2022/09/06 09:02:00;;;;;;;6.15;2.55;;;;;;;21.80;45.30;101089.84;5094922;28;20027;-74
2022/09/06 09:04:27;;;;;;;6.78;3.38;;;;;;;22.02;43.37;101101.13;5084408;28;20111;-75
2022/09/06 09:06:58;;;;;;;7.03;2.80;;;;;;;21.69;44.24;101095.81;5095884;28;20019;-74
2022/09/06 09:09:26;;;;;;;5.83;2.43;;;;;;;21.64;44.89;101087.97;5094658;28;20028;-73
2022/09/06 09:11:52;;;;;;;3.65;2.60;;;;;;;22.08;45.93;101090.16;5094129;28;20835;-73
2022/09/06 09:14:25;;;;;;;5.65;2.15;;;;;;;22.73;43.81;101093.75;5093991;28;20051;-74
2022/09/06 09:16:52;;;;;;;12.75;2.83;;;;;;;23.46;42.30;101099.66;5076951;28;20020;-75
2022/09/06 09:19:17;;;;;;;7.50;3.72;;;;;;;23.85;40.16;101100.91;5094349;28;20028;-72
2022/09/06 09:21:43;;;;;;;6.80;2.83;;;;;;;24.08;39.09;101101.94;5095369;28;20453;-74
2022/09/06 09:24:11;;;;;;;5.32;2.55;;;;;;;24.41;39.09;101100.28;5095251;28;20092;-73
2022/09/06 09:26:58;;;;;;;9.07;2.92;;;;;;;24.86;36.90;101111.53;5095568;28;20024;-75
2022/09/06 09:29:23;;;;;;;5.80;2.85;;;;;;;24.91;37.19;101104.78;5093446;28;20030;-74
2022/09/06 09:31:52;;;;;;;7.07;2.80;;;;;;;24.70;36.78;101104.03;5076830;28;20032;-75
2022/09/06 09:34:26;;;;;;;5.05;2.90;;;;;;;23.87;38.24;101101.91;5094851;28;20107;-74
2022/09/06 09:37:20;;;;;;;7.75;2.60;;;;;;;23.65;39.18;101103.25;5095011;28;20028;-73
2022/09/06 09:39:47;;;;;;;7.85;2.72;;;;;;;23.57;39.42;101093.59;5093533;28;20024;-74
2022/09/06 09:42:23;;;;;;;5.15;2.58;;;;;;;23.79;39.64;101093.09;5093547;28;20024;-74
2022/09/06 09:44:49;;;;;;;7.50;2.35;;;;;;;24.11;39.34;101089.09;5093629;28;20070;-73
2022/09/06 09:47:27;;;;;;;4.63;2.80;;;;;;;24.07;38.13;101103.28;5093508;28;20457;-71
2022/09/06 09:49:53;;;;;;;7.07;2.80;;;;;;;24.14;38.83;101102.56;5093332;28;20016;-73
2022/09/06 09:52:28;;;;;;;5.95;2.75;;;;;;;24.10;38.35;101096.31;5076085;28;20023;-74
2022/09/06 09:55:04;;;;;;;5.43;2.35;;;;;;;23.52;39.55;101103.22;5076384;28;20317;-75
2022/09/06 09:57:31;;;;;;;5.00;2.63;;;;;;;23.11;40.08;101092.19;5093162;28;20024;-75
2022/09/06 09:59:59;;;;;;;4.45;2.53;;;;;;;22.99;40.98;101082.13;5075964;28;20372;-73
2022/09/06 10:02:34;;;;;;;5.13;2.55;;;;;;;23.09;41.34;101073.72;5092887;28;20019;-74
2022/09/06 10:05:14;;;;;;;5.57;2.53;;;;;;;23.06;41.99;101069.00;5093030;28;20406;-73
2022/09/06 10:07:45;;;;;;;5.75;2.50;;;;;;;23.07;42.21;101059.69;5094133;28;20489;-74
2022/09/06 10:10:14;;;;;;;6.10;2.80;;;;;;;23.28;41.26;101062.69;5076049;28;20377;-75
2022/09/06 10:12:41;;;;;;;9.50;2.83;;;;;;;24.07;40.77;101060.25;5092824;28;20404;-74
2022/09/06 10:15:08;;;;;;;10.25;2.63;;;;;;;23.91;39.49;101073.13;5092739;28;20496;-75
2022/09/06 10:17:34;;;;;;;7.53;3.03;;;;;;;23.86;39.35;101071.13;5092966;28;20107;-75
2022/09/06 10:20:07;;;;;;;6.78;2.85;;;;;;;24.11;39.02;101072.34;5092589;28;20096;-74
2022/09/06 10:22:54;;;;;;;7.00;2.42;;;;;;;23.67;39.53;101059.66;5075834;28;20016;-75
2022/09/06 10:25:44;;;;;;;6.80;2.90;;;;;;;24.00;39.68;101048.50;5092343;28;20056;-77
2022/09/06 10:28:28;;;;;;;8.05;2.95;;;;;;;24.00;39.12;101057.28;5092523;28;20024;-74
2022/09/06 10:31:23;;;;;;;5.15;2.47;;;;;;;24.60;38.78;101048.22;5094110;28;20109;-73
2022/09/06 10:34:07;;;;;;;5.30;3.63;;;;;;;24.56;38.79;101051.50;5093655;28;20080;-74
2022/09/06 10:36:43;;;;;;;7.80;3.13;;;;;;;24.32;39.46;101043.16;5093943;28;20093;-73
2022/09/06 10:39:33;;;;;;;15.50;3.03;;;;;;;24.02;39.68;101031.97;5093735;28;20023;-72
2022/09/06 10:42:11;;;;;;;6.40;2.80;;;;;;;23.76;39.60;101021.22;5093267;28;20024;-74
2022/09/06 10:44:55;;;;;;;7.82;3.85;;;;;;;23.63;40.49;101018.38;5092838;28;20031;-74
2022/09/06 10:47:22;;;;;;;14.27;4.40;;;;;;;23.47;39.76;101022.44;5093608;28;20496;-74
2022/09/06 10:49:53;;;;;;;23.25;3.97;;;;;;;23.26;40.21;101015.81;5075543;28;20039;-74
2022/09/06 10:52:33;;;;;;;8.48;2.42;;;;;;;22.67;41.84;101003.53;5092160;28;20032;-74
2022/09/06 10:55:04;;;;;;;5.15;2.40;;;;;;;22.47;43.38;100993.34;5092428;28;20028;-73
2022/09/06 10:57:40;;;;;;;5.60;2.55;;;;;;;22.39;42.77;100980.81;5092478;28;20023;-73
2022/09/06 11:00:14;;;;;;;4.60;2.67;;;;;;;22.34;43.84;100972.19;5092408;28;20035;-72
2022/09/06 11:03:07;;;;;;;14.38;2.88;;;;;;;22.35;43.43;100967.94;5092238;28;20024;-73
2022/09/06 11:05:39;;;;;;;6.13;2.85;;;;;;;22.39;43.64;100974.19;5065253;28;20036;-73
2022/09/06 11:08:22;;;;;;;4.85;2.38;;;;;;;22.18;44.25;100968.25;5075358;28;20032;-72
2022/09/06 11:10:49;;;;;;;5.70;2.42;;;;;;;22.24;44.64;100959.41;5092063;28;20031;-72
2022/09/06 11:13:17;;;;;;;5.30;2.65;;;;;;;22.26;41.46;100975.00;5072231;28;20028;-72
2022/09/06 11:15:47;;;;;;;7.47;2.60;;;;;;;22.31;40.54;100984.97;5092325;28;20044;-73
2022/09/06 11:18:49;;;;;;;13.63;4.18;;;;;;;22.21;40.84;100990.44;5074450;28;20456;-71
2022/09/06 11:21:40;;;;;;;5.95;2.22;;;;;;;22.35;41.77;100985.41;5092461;28;20439;-73
2022/09/06 11:24:13;;;;;;;7.80;2.55;;;;;;;22.57;42.20;100975.44;5092533;28;20027;-72
2022/09/06 11:26:54;;;;;;;7.22;2.17;;;;;;;22.80;41.53;100982.34;5092164;28;20044;-72
2022/09/06 11:29:22;;;;;;;4.03;2.87;;;;;;;22.75;40.61;100981.13;5092126;28;20028;-72
2022/09/06 11:31:55;;;;;;;4.90;1.92;;;;;;;22.66;40.14;100986.63;5074160;28;20066;-71
2022/09/06 11:34:26;;;;;;;4.57;2.22;;;;;;;22.56;40.26;100976.78;5092807;28;20109;-71